sensor_id;sensor_type;location;lat;lon;timestamp;P1;durP1;ratioP1;P2;durP2;ratioP2
45522;SDS011;31254;51.680;5.394;2023-12-22T00:01:18;5.75;;;1.33;;
45522;SDS011;31254;51.680;5.394;2023-12-22T00:03:44;6.55;;;1.17;;
45522;SDS011;31254;51.680;5.394;2023-12-22T00:06:14;4.32;;;1.10;;
45522;SDS011;31254;51.680;5.394;2023-12-22T00:08:40;6.22;;;1.08;;
45522;SDS011;31254;51.680;5.394;2023-12-22T00:11:06;7.13;;;1.17;;
45522;SDS011;31254;51.680;5.394;2023-12-22T00:13:33;5.28;;;1.10;;
45522;SDS011;31254;51.680;5.394;2023-12-22T00:16:00;4.85;;;1.23;;
45522;SDS011;31254;51.680;5.394;2023-12-22T00:18:28;5.47;;;1.20;;
45522;SDS011;31254;51.680;5.394;2023-12-22T00:20:54;8.05;;;1.75;;
45522;SDS011;31254;51.680;5.394;2023-12-22T00:23:21;3.83;;;0.98;;
45522;SDS011;31254;51.680;5.394;2023-12-22T00:25:47;4.78;;;1.35;;
45522;SDS011;31254;51.680;5.394;2023-12-22T00:28:14;7.03;;;1.20;;
45522;SDS011;31254;51.680;5.394;2023-12-22T00:30:41;7.65;;;1.20;;
45522;SDS011;31254;51.680;5.394;2023-12-22T00:33:08;3.70;;;0.80;;
45522;SDS011;31254;51.680;5.394;2023-12-22T00:35:34;5.80;;;1.08;;
45522;SDS011;31254;51.680;5.394;2023-12-22T00:38:02;6.60;;;0.90;;
45522;SDS011;31254;51.680;5.394;2023-12-22T00:40:29;4.90;;;0.95;;
45522;SDS011;31254;51.680;5.394;2023-12-22T00:42:55;5.47;;;1.17;;
45522;SDS011;31254;51.680;5.394;2023-12-22T00:45:22;6.65;;;1.23;;
45522;SDS011;31254;51.680;5.394;2023-12-22T00:47:48;3.25;;;1.10;;
45522;SDS011;31254;51.680;5.394;2023-12-22T00:50:15;5.80;;;1.38;;
45522;SDS011;31254;51.680;5.394;2023-12-22T00:52:42;4.47;;;1.38;;
45522;SDS011;31254;51.680;5.394;2023-12-22T00:55:08;8.00;;;1.30;;
45522;SDS011;31254;51.680;5.394;2023-12-22T00:57:35;4.75;;;1.48;;
45522;SDS011;31254;51.680;5.394;2023-12-22T01:00:01;6.18;;;1.52;;
45522;SDS011;31254;51.680;5.394;2023-12-22T01:02:31;10.35;;;1.40;;
45522;SDS011;31254;51.680;5.394;2023-12-22T01:04:57;6.07;;;1.10;;
45522;SDS011;31254;51.680;5.394;2023-12-22T01:07:24;5.05;;;1.23;;
45522;SDS011;31254;51.680;5.394;2023-12-22T01:09:52;4.95;;;1.30;;
45522;SDS011;31254;51.680;5.394;2023-12-22T01:12:19;7.22;;;1.08;;
45522;SDS011;31254;51.680;5.394;2023-12-22T01:14:46;7.82;;;1.10;;
45522;SDS011;31254;51.680;5.394;2023-12-22T01:17:15;4.55;;;1.30;;
45522;SDS011;31254;51.680;5.394;2023-12-22T01:19:41;4.68;;;1.25;;
45522;SDS011;31254;51.680;5.394;2023-12-22T01:22:08;6.63;;;1.20;;
45522;SDS011;31254;51.680;5.394;2023-12-22T01:24:34;6.43;;;1.10;;
45522;SDS011;31254;51.680;5.394;2023-12-22T01:27:05;8.55;;;1.10;;
45522;SDS011;31254;51.680;5.394;2023-12-22T01:29:32;7.47;;;1.30;;
45522;SDS011;31254;51.680;5.394;2023-12-22T01:31:58;5.63;;;1.50;;
45522;SDS011;31254;51.680;5.394;2023-12-22T01:34:25;5.20;;;1.38;;
45522;SDS011;31254;51.680;5.394;2023-12-22T01:36:52;6.40;;;1.55;;
45522;SDS011;31254;51.680;5.394;2023-12-22T01:39:18;7.13;;;1.40;;
45522;SDS011;31254;51.680;5.394;2023-12-22T01:41:45;10.57;;;1.77;;
45522;SDS011;31254;51.680;5.394;2023-12-22T01:44:11;7.45;;;1.30;;
45522;SDS011;31254;51.680;5.394;2023-12-22T01:46:38;6.03;;;1.30;;
45522;SDS011;31254;51.680;5.394;2023-12-22T01:49:05;5.65;;;1.20;;
45522;SDS011;31254;51.680;5.394;2023-12-22T01:51:34;8.98;;;1.60;;
45522;SDS011;31254;51.680;5.394;2023-12-22T01:54:01;8.50;;;1.30;;
45522;SDS011;31254;51.680;5.394;2023-12-22T01:56:28;8.63;;;1.73;;
45522;SDS011;31254;51.680;5.394;2023-12-22T01:58:55;11.80;;;2.60;;
45522;SDS011;31254;51.680;5.394;2023-12-22T02:01:25;8.20;;;1.60;;
45522;SDS011;31254;51.680;5.394;2023-12-22T02:03:53;8.55;;;1.80;;
45522;SDS011;31254;51.680;5.394;2023-12-22T02:06:21;8.63;;;1.42;;
45522;SDS011;31254;51.680;5.394;2023-12-22T02:08:47;12.65;;;1.70;;
45522;SDS011;31254;51.680;5.394;2023-12-22T02:11:14;7.20;;;1.50;;
45522;SDS011;31254;51.680;5.394;2023-12-22T02:13:44;6.45;;;1.38;;
45522;SDS011;31254;51.680;5.394;2023-12-22T02:18:57;11.50;;;1.85;;
45522;SDS011;31254;51.680;5.394;2023-12-22T02:21:27;6.85;;;1.30;;
45522;SDS011;31254;51.680;5.394;2023-12-22T02:23:54;3.92;;;1.30;;
45522;SDS011;31254;51.680;5.394;2023-12-22T02:26:34;7.15;;;1.33;;
45522;SDS011;31254;51.680;5.394;2023-12-22T02:29:07;10.63;;;1.50;;
45522;SDS011;31254;51.680;5.394;2023-12-22T02:31:37;5.90;;;1.27;;
45522;SDS011;31254;51.680;5.394;2023-12-22T02:34:12;9.07;;;1.80;;
45522;SDS011;31254;51.680;5.394;2023-12-22T02:36:44;7.30;;;1.38;;
45522;SDS011;31254;51.680;5.394;2023-12-22T02:39:13;9.88;;;1.92;;
45522;SDS011;31254;51.680;5.394;2023-12-22T02:41:40;10.50;;;1.63;;
45522;SDS011;31254;51.680;5.394;2023-12-22T02:44:07;6.95;;;2.08;;
45522;SDS011;31254;51.680;5.394;2023-12-22T02:46:34;7.50;;;1.40;;
45522;SDS011;31254;51.680;5.394;2023-12-22T02:49:01;9.68;;;1.75;;
45522;SDS011;31254;51.680;5.394;2023-12-22T02:51:28;11.40;;;1.75;;
45522;SDS011;31254;51.680;5.394;2023-12-22T02:53:54;9.65;;;1.67;;
45522;SDS011;31254;51.680;5.394;2023-12-22T02:56:21;9.27;;;1.33;;
45522;SDS011;31254;51.680;5.394;2023-12-22T02:58:47;9.00;;;1.30;;
45522;SDS011;31254;51.680;5.394;2023-12-22T03:01:14;4.43;;;1.10;;
45522;SDS011;31254;51.680;5.394;2023-12-22T03:03:40;7.57;;;1.80;;
45522;SDS011;31254;51.680;5.394;2023-12-22T03:06:07;6.57;;;1.92;;
45522;SDS011;31254;51.680;5.394;2023-12-22T03:08:33;9.57;;;1.58;;
45522;SDS011;31254;51.680;5.394;2023-12-22T03:11:00;7.55;;;1.55;;
45522;SDS011;31254;51.680;5.394;2023-12-22T03:13:27;6.10;;;1.63;;
45522;SDS011;31254;51.680;5.394;2023-12-22T03:15:53;7.00;;;1.48;;
45522;SDS011;31254;51.680;5.394;2023-12-22T03:18:20;6.95;;;1.83;;
45522;SDS011;31254;51.680;5.394;2023-12-22T03:20:47;8.88;;;1.83;;
45522;SDS011;31254;51.680;5.394;2023-12-22T03:23:13;10.98;;;1.70;;
45522;SDS011;31254;51.680;5.394;2023-12-22T03:25:39;7.00;;;1.67;;
45522;SDS011;31254;51.680;5.394;2023-12-22T03:28:06;8.73;;;1.90;;
45522;SDS011;31254;51.680;5.394;2023-12-22T03:30:33;9.52;;;1.50;;
45522;SDS011;31254;51.680;5.394;2023-12-22T03:33:02;8.52;;;1.60;;
45522;SDS011;31254;51.680;5.394;2023-12-22T03:35:28;7.65;;;1.67;;
45522;SDS011;31254;51.680;5.394;2023-12-22T03:37:55;7.22;;;1.60;;
45522;SDS011;31254;51.680;5.394;2023-12-22T03:40:22;8.32;;;1.20;;
45522;SDS011;31254;51.680;5.394;2023-12-22T03:42:48;8.77;;;1.38;;
45522;SDS011;31254;51.680;5.394;2023-12-22T03:45:15;8.70;;;1.23;;
45522;SDS011;31254;51.680;5.394;2023-12-22T03:47:41;6.00;;;1.58;;
45522;SDS011;31254;51.680;5.394;2023-12-22T03:50:08;11.85;;;2.08;;
45522;SDS011;31254;51.680;5.394;2023-12-22T03:52:35;7.72;;;1.38;;
45522;SDS011;31254;51.680;5.394;2023-12-22T03:55:01;5.30;;;1.33;;
45522;SDS011;31254;51.680;5.394;2023-12-22T03:57:28;7.68;;;1.20;;
45522;SDS011;31254;51.680;5.394;2023-12-22T03:59:54;9.50;;;1.40;;
45522;SDS011;31254;51.680;5.394;2023-12-22T04:02:21;6.93;;;1.55;;
45522;SDS011;31254;51.680;5.394;2023-12-22T04:04:48;8.25;;;1.45;;
45522;SDS011;31254;51.680;5.394;2023-12-22T04:07:15;12.05;;;2.22;;
45522;SDS011;31254;51.680;5.394;2023-12-22T04:09:41;7.35;;;1.20;;
45522;SDS011;31254;51.680;5.394;2023-12-22T04:12:08;7.60;;;1.30;;
45522;SDS011;31254;51.680;5.394;2023-12-22T04:14:34;10.43;;;1.77;;
45522;SDS011;31254;51.680;5.394;2023-12-22T04:17:01;10.90;;;1.77;;
45522;SDS011;31254;51.680;5.394;2023-12-22T04:19:27;5.07;;;1.33;;
45522;SDS011;31254;51.680;5.394;2023-12-22T04:21:54;8.27;;;1.58;;
45522;SDS011;31254;51.680;5.394;2023-12-22T04:24:21;4.18;;;1.17;;
45522;SDS011;31254;51.680;5.394;2023-12-22T04:26:47;7.25;;;1.30;;
45522;SDS011;31254;51.680;5.394;2023-12-22T04:29:14;7.43;;;1.30;;
45522;SDS011;31254;51.680;5.394;2023-12-22T04:31:41;6.65;;;1.73;;
45522;SDS011;31254;51.680;5.394;2023-12-22T04:34:07;9.52;;;1.42;;
45522;SDS011;31254;51.680;5.394;2023-12-22T04:36:34;6.78;;;1.35;;
45522;SDS011;31254;51.680;5.394;2023-12-22T04:39:01;8.85;;;1.80;;
45522;SDS011;31254;51.680;5.394;2023-12-22T04:41:28;9.38;;;1.60;;
45522;SDS011;31254;51.680;5.394;2023-12-22T04:43:54;8.88;;;1.88;;
45522;SDS011;31254;51.680;5.394;2023-12-22T04:46:21;9.00;;;2.47;;
45522;SDS011;31254;51.680;5.394;2023-12-22T04:48:48;6.20;;;1.23;;
45522;SDS011;31254;51.680;5.394;2023-12-22T04:51:14;5.65;;;1.40;;
45522;SDS011;31254;51.680;5.394;2023-12-22T04:53:41;10.55;;;1.80;;
45522;SDS011;31254;51.680;5.394;2023-12-22T04:56:07;8.85;;;1.40;;
45522;SDS011;31254;51.680;5.394;2023-12-22T04:58:34;6.30;;;1.45;;
45522;SDS011;31254;51.680;5.394;2023-12-22T05:01:00;10.35;;;1.52;;
45522;SDS011;31254;51.680;5.394;2023-12-22T05:03:27;8.48;;;1.52;;
45522;SDS011;31254;51.680;5.394;2023-12-22T05:05:54;8.80;;;1.65;;
45522;SDS011;31254;51.680;5.394;2023-12-22T05:08:21;7.07;;;1.60;;
45522;SDS011;31254;51.680;5.394;2023-12-22T05:10:47;9.23;;;1.50;;
45522;SDS011;31254;51.680;5.394;2023-12-22T05:13:14;9.73;;;1.80;;
45522;SDS011;31254;51.680;5.394;2023-12-22T05:15:40;7.38;;;1.65;;
45522;SDS011;31254;51.680;5.394;2023-12-22T05:18:07;7.43;;;1.55;;
45522;SDS011;31254;51.680;5.394;2023-12-22T05:20:34;6.85;;;1.55;;
45522;SDS011;31254;51.680;5.394;2023-12-22T05:23:01;6.35;;;1.77;;
45522;SDS011;31254;51.680;5.394;2023-12-22T05:25:27;8.02;;;2.38;;
45522;SDS011;31254;51.680;5.394;2023-12-22T05:27:55;7.10;;;1.30;;
45522;SDS011;31254;51.680;5.394;2023-12-22T05:30:21;6.40;;;1.48;;
45522;SDS011;31254;51.680;5.394;2023-12-22T05:32:48;6.05;;;1.40;;
45522;SDS011;31254;51.680;5.394;2023-12-22T05:35:14;5.80;;;1.30;;
45522;SDS011;31254;51.680;5.394;2023-12-22T05:37:41;8.25;;;1.65;;
45522;SDS011;31254;51.680;5.394;2023-12-22T05:40:08;8.70;;;1.75;;
45522;SDS011;31254;51.680;5.394;2023-12-22T05:42:35;6.38;;;1.40;;
45522;SDS011;31254;51.680;5.394;2023-12-22T05:45:02;6.55;;;1.15;;
45522;SDS011;31254;51.680;5.394;2023-12-22T05:47:29;6.47;;;1.35;;
45522;SDS011;31254;51.680;5.394;2023-12-22T05:49:56;7.72;;;1.13;;
45522;SDS011;31254;51.680;5.394;2023-12-22T05:52:23;5.57;;;1.45;;
45522;SDS011;31254;51.680;5.394;2023-12-22T05:54:49;4.65;;;0.98;;
45522;SDS011;31254;51.680;5.394;2023-12-22T05:57:16;4.93;;;1.30;;
45522;SDS011;31254;51.680;5.394;2023-12-22T05:59:43;8.40;;;1.40;;
45522;SDS011;31254;51.680;5.394;2023-12-22T06:02:09;5.80;;;1.20;;
45522;SDS011;31254;51.680;5.394;2023-12-22T06:04:36;4.85;;;1.30;;
45522;SDS011;31254;51.680;5.394;2023-12-22T06:07:03;6.28;;;1.42;;
45522;SDS011;31254;51.680;5.394;2023-12-22T06:09:29;6.88;;;1.20;;
45522;SDS011;31254;51.680;5.394;2023-12-22T06:11:56;3.17;;;1.20;;
45522;SDS011;31254;51.680;5.394;2023-12-22T06:14:24;4.63;;;1.13;;
45522;SDS011;31254;51.680;5.394;2023-12-22T06:16:50;5.40;;;1.48;;
45522;SDS011;31254;51.680;5.394;2023-12-22T06:19:17;7.47;;;1.83;;
45522;SDS011;31254;51.680;5.394;2023-12-22T06:21:44;9.18;;;1.77;;
45522;SDS011;31254;51.680;5.394;2023-12-22T06:24:10;7.90;;;1.52;;
45522;SDS011;31254;51.680;5.394;2023-12-22T06:26:37;8.35;;;2.05;;
45522;SDS011;31254;51.680;5.394;2023-12-22T06:29:03;5.07;;;1.30;;
45522;SDS011;31254;51.680;5.394;2023-12-22T06:31:30;6.72;;;1.73;;
45522;SDS011;31254;51.680;5.394;2023-12-22T06:33:57;7.00;;;1.73;;
45522;SDS011;31254;51.680;5.394;2023-12-22T06:36:28;8.00;;;1.30;;
45522;SDS011;31254;51.680;5.394;2023-12-22T06:38:57;8.45;;;1.60;;
45522;SDS011;31254;51.680;5.394;2023-12-22T06:41:25;5.95;;;1.58;;
45522;SDS011;31254;51.680;5.394;2023-12-22T06:43:54;9.52;;;1.85;;
45522;SDS011;31254;51.680;5.394;2023-12-22T06:46:22;8.05;;;1.65;;
45522;SDS011;31254;51.680;5.394;2023-12-22T06:48:52;7.72;;;1.55;;
45522;SDS011;31254;51.680;5.394;2023-12-22T06:51:21;8.75;;;1.80;;
45522;SDS011;31254;51.680;5.394;2023-12-22T06:53:50;7.78;;;1.80;;
45522;SDS011;31254;51.680;5.394;2023-12-22T06:56:18;10.38;;;2.10;;
45522;SDS011;31254;51.680;5.394;2023-12-22T06:58:45;7.10;;;1.77;;
45522;SDS011;31254;51.680;5.394;2023-12-22T07:01:24;14.05;;;2.38;;
45522;SDS011;31254;51.680;5.394;2023-12-22T07:03:54;8.55;;;2.42;;
45522;SDS011;31254;51.680;5.394;2023-12-22T07:06:21;15.55;;;2.50;;
45522;SDS011;31254;51.680;5.394;2023-12-22T07:11:38;11.85;;;2.30;;
45522;SDS011;31254;51.680;5.394;2023-12-22T07:14:06;13.95;;;2.90;;
45522;SDS011;31254;51.680;5.394;2023-12-22T07:16:33;10.60;;;2.40;;
45522;SDS011;31254;51.680;5.394;2023-12-22T07:19:01;13.52;;;2.88;;
45522;SDS011;31254;51.680;5.394;2023-12-22T07:21:28;12.10;;;2.65;;
45522;SDS011;31254;51.680;5.394;2023-12-22T07:23:54;19.10;;;3.20;;
45522;SDS011;31254;51.680;5.394;2023-12-22T07:26:21;14.65;;;2.50;;
45522;SDS011;31254;51.680;5.394;2023-12-22T07:28:47;16.17;;;3.08;;
45522;SDS011;31254;51.680;5.394;2023-12-22T07:31:18;18.05;;;2.75;;
45522;SDS011;31254;51.680;5.394;2023-12-22T07:33:44;15.32;;;2.58;;
45522;SDS011;31254;51.680;5.394;2023-12-22T07:36:13;10.10;;;2.40;;
45522;SDS011;31254;51.680;5.394;2023-12-22T07:38:39;16.08;;;3.38;;
45522;SDS011;31254;51.680;5.394;2023-12-22T07:41:06;14.48;;;3.10;;
45522;SDS011;31254;51.680;5.394;2023-12-22T07:43:34;15.45;;;2.70;;
45522;SDS011;31254;51.680;5.394;2023-12-22T07:46:01;16.25;;;3.15;;
45522;SDS011;31254;51.680;5.394;2023-12-22T07:48:28;15.25;;;3.38;;
45522;SDS011;31254;51.680;5.394;2023-12-22T07:50:55;14.57;;;2.40;;
45522;SDS011;31254;51.680;5.394;2023-12-22T07:53:22;14.25;;;2.75;;
45522;SDS011;31254;51.680;5.394;2023-12-22T07:55:48;10.80;;;2.40;;
45522;SDS011;31254;51.680;5.394;2023-12-22T07:58:15;13.05;;;2.42;;
45522;SDS011;31254;51.680;5.394;2023-12-22T08:00:43;15.60;;;3.55;;
45522;SDS011;31254;51.680;5.394;2023-12-22T08:03:12;12.60;;;2.63;;
45522;SDS011;31254;51.680;5.394;2023-12-22T08:05:39;11.52;;;2.63;;
45522;SDS011;31254;51.680;5.394;2023-12-22T08:08:06;17.50;;;3.63;;
45522;SDS011;31254;51.680;5.394;2023-12-22T08:10:32;13.85;;;3.92;;
45522;SDS011;31254;51.680;5.394;2023-12-22T08:12:59;11.95;;;2.78;;
45522;SDS011;31254;51.680;5.394;2023-12-22T08:15:26;19.40;;;2.92;;
45522;SDS011;31254;51.680;5.394;2023-12-22T08:18:02;14.38;;;2.53;;
45522;SDS011;31254;51.680;5.394;2023-12-22T08:20:29;14.27;;;3.47;;
45522;SDS011;31254;51.680;5.394;2023-12-22T08:23:02;10.65;;;2.20;;
45522;SDS011;31254;51.680;5.394;2023-12-22T08:25:35;13.30;;;2.58;;
45522;SDS011;31254;51.680;5.394;2023-12-22T08:28:02;19.15;;;2.97;;
45522;SDS011;31254;51.680;5.394;2023-12-22T08:30:29;11.48;;;3.25;;
45522;SDS011;31254;51.680;5.394;2023-12-22T08:32:55;13.88;;;3.40;;
45522;SDS011;31254;51.680;5.394;2023-12-22T08:35:22;19.35;;;3.03;;
45522;SDS011;31254;51.680;5.394;2023-12-22T08:37:48;16.40;;;2.78;;
45522;SDS011;31254;51.680;5.394;2023-12-22T08:40:15;10.90;;;2.75;;
45522;SDS011;31254;51.680;5.394;2023-12-22T08:42:42;15.52;;;2.85;;
45522;SDS011;31254;51.680;5.394;2023-12-22T08:45:08;15.20;;;3.10;;
45522;SDS011;31254;51.680;5.394;2023-12-22T08:47:35;11.63;;;2.33;;
45522;SDS011;31254;51.680;5.394;2023-12-22T08:50:02;10.35;;;2.50;;
45522;SDS011;31254;51.680;5.394;2023-12-22T08:52:30;14.02;;;2.47;;
45522;SDS011;31254;51.680;5.394;2023-12-22T08:54:57;10.07;;;2.05;;
45522;SDS011;31254;51.680;5.394;2023-12-22T08:57:24;13.10;;;2.67;;
45522;SDS011;31254;51.680;5.394;2023-12-22T08:59:51;11.68;;;2.80;;
45522;SDS011;31254;51.680;5.394;2023-12-22T09:02:18;10.65;;;1.85;;
45522;SDS011;31254;51.680;5.394;2023-12-22T09:04:44;13.38;;;2.80;;
45522;SDS011;31254;51.680;5.394;2023-12-22T09:07:11;14.77;;;2.45;;
45522;SDS011;31254;51.680;5.394;2023-12-22T09:09:37;8.25;;;1.90;;
45522;SDS011;31254;51.680;5.394;2023-12-22T09:12:04;14.82;;;2.53;;
45522;SDS011;31254;51.680;5.394;2023-12-22T09:14:31;11.73;;;2.15;;
45522;SDS011;31254;51.680;5.394;2023-12-22T09:16:58;14.63;;;2.22;;
45522;SDS011;31254;51.680;5.394;2023-12-22T09:19:24;11.48;;;2.40;;
45522;SDS011;31254;51.680;5.394;2023-12-22T09:21:51;8.18;;;1.92;;
45522;SDS011;31254;51.680;5.394;2023-12-22T09:24:17;10.18;;;2.15;;
45522;SDS011;31254;51.680;5.394;2023-12-22T09:26:44;7.63;;;1.73;;
45522;SDS011;31254;51.680;5.394;2023-12-22T09:29:10;5.65;;;1.70;;
45522;SDS011;31254;51.680;5.394;2023-12-22T09:31:37;6.93;;;2.47;;
45522;SDS011;31254;51.680;5.394;2023-12-22T09:34:04;8.57;;;2.05;;
45522;SDS011;31254;51.680;5.394;2023-12-22T09:36:31;9.55;;;2.20;;
45522;SDS011;31254;51.680;5.394;2023-12-22T09:38:58;7.25;;;1.42;;
45522;SDS011;31254;51.680;5.394;2023-12-22T09:41:25;8.10;;;1.90;;
45522;SDS011;31254;51.680;5.394;2023-12-22T09:43:52;10.20;;;1.58;;
45522;SDS011;31254;51.680;5.394;2023-12-22T09:46:23;10.95;;;2.10;;
45522;SDS011;31254;51.680;5.394;2023-12-22T09:48:50;7.10;;;1.58;;
45522;SDS011;31254;51.680;5.394;2023-12-22T09:51:18;7.13;;;1.70;;
45522;SDS011;31254;51.680;5.394;2023-12-22T09:53:45;10.25;;;1.85;;
45522;SDS011;31254;51.680;5.394;2023-12-22T09:56:13;9.02;;;1.70;;
45522;SDS011;31254;51.680;5.394;2023-12-22T09:58:42;10.20;;;1.75;;
45522;SDS011;31254;51.680;5.394;2023-12-22T10:01:09;4.85;;;1.17;;
45522;SDS011;31254;51.680;5.394;2023-12-22T10:03:36;4.32;;;1.20;;
45522;SDS011;31254;51.680;5.394;2023-12-22T10:06:04;9.98;;;2.03;;
45522;SDS011;31254;51.680;5.394;2023-12-22T10:08:30;5.72;;;1.23;;
45522;SDS011;31254;51.680;5.394;2023-12-22T10:10:58;5.40;;;1.30;;
45522;SDS011;31254;51.680;5.394;2023-12-22T10:13:25;3.90;;;1.20;;
45522;SDS011;31254;51.680;5.394;2023-12-22T10:15:54;12.18;;;2.03;;
45522;SDS011;31254;51.680;5.394;2023-12-22T10:18:22;7.00;;;1.38;;
45522;SDS011;31254;51.680;5.394;2023-12-22T10:20:48;5.00;;;1.50;;
45522;SDS011;31254;51.680;5.394;2023-12-22T10:23:15;8.35;;;1.52;;
45522;SDS011;31254;51.680;5.394;2023-12-22T10:25:41;5.72;;;1.30;;
45522;SDS011;31254;51.680;5.394;2023-12-22T10:28:11;5.68;;;1.25;;
45522;SDS011;31254;51.680;5.394;2023-12-22T10:30:38;4.35;;;1.10;;
45522;SDS011;31254;51.680;5.394;2023-12-22T10:33:06;5.18;;;1.30;;
45522;SDS011;31254;51.680;5.394;2023-12-22T10:35:33;6.38;;;1.17;;
45522;SDS011;31254;51.680;5.394;2023-12-22T10:38:00;4.35;;;1.00;;
45522;SDS011;31254;51.680;5.394;2023-12-22T10:40:29;5.97;;;1.15;;
45522;SDS011;31254;51.680;5.394;2023-12-22T10:42:56;6.90;;;1.38;;
45522;SDS011;31254;51.680;5.394;2023-12-22T10:45:23;5.32;;;1.30;;
45522;SDS011;31254;51.680;5.394;2023-12-22T10:47:50;6.93;;;1.52;;
45522;SDS011;31254;51.680;5.394;2023-12-22T10:50:21;6.15;;;1.35;;
45522;SDS011;31254;51.680;5.394;2023-12-22T10:52:50;2.50;;;0.95;;
45522;SDS011;31254;51.680;5.394;2023-12-22T10:55:18;3.95;;;1.00;;
45522;SDS011;31254;51.680;5.394;2023-12-22T10:57:48;6.90;;;1.27;;
45522;SDS011;31254;51.680;5.394;2023-12-22T11:00:15;4.70;;;1.35;;
45522;SDS011;31254;51.680;5.394;2023-12-22T11:02:47;2.67;;;0.70;;
45522;SDS011;31254;51.680;5.394;2023-12-22T11:05:17;3.70;;;1.17;;
45522;SDS011;31254;51.680;5.394;2023-12-22T11:07:50;5.28;;;1.10;;
45522;SDS011;31254;51.680;5.394;2023-12-22T11:10:21;5.57;;;1.25;;
45522;SDS011;31254;51.680;5.394;2023-12-22T11:12:48;3.63;;;1.20;;
45522;SDS011;31254;51.680;5.394;2023-12-22T11:15:15;3.42;;;1.00;;
45522;SDS011;31254;51.680;5.394;2023-12-22T11:17:44;2.92;;;1.00;;
45522;SDS011;31254;51.680;5.394;2023-12-22T11:20:14;4.13;;;0.98;;
45522;SDS011;31254;51.680;5.394;2023-12-22T11:22:42;5.10;;;1.00;;
45522;SDS011;31254;51.680;5.394;2023-12-22T11:25:09;2.75;;;1.00;;
45522;SDS011;31254;51.680;5.394;2023-12-22T11:27:40;4.07;;;1.30;;
45522;SDS011;31254;51.680;5.394;2023-12-22T11:30:09;2.10;;;0.90;;
45522;SDS011;31254;51.680;5.394;2023-12-22T11:32:37;4.82;;;1.25;;
45522;SDS011;31254;51.680;5.394;2023-12-22T11:35:06;5.93;;;1.35;;
45522;SDS011;31254;51.680;5.394;2023-12-22T11:37:35;5.22;;;1.48;;
45522;SDS011;31254;51.680;5.394;2023-12-22T11:40:02;3.50;;;1.00;;
45522;SDS011;31254;51.680;5.394;2023-12-22T11:42:30;3.35;;;0.90;;
45522;SDS011;31254;51.680;5.394;2023-12-22T11:45:03;5.32;;;1.10;;
45522;SDS011;31254;51.680;5.394;2023-12-22T11:47:31;3.78;;;1.10;;
45522;SDS011;31254;51.680;5.394;2023-12-22T11:49:57;3.35;;;1.05;;
45522;SDS011;31254;51.680;5.394;2023-12-22T11:52:25;5.43;;;0.93;;
45522;SDS011;31254;51.680;5.394;2023-12-22T11:54:56;4.47;;;1.42;;
45522;SDS011;31254;51.680;5.394;2023-12-22T11:57:29;5.22;;;1.30;;
45522;SDS011;31254;51.680;5.394;2023-12-22T12:00:07;2.80;;;1.23;;
45522;SDS011;31254;51.680;5.394;2023-12-22T12:02:54;3.75;;;1.00;;
45522;SDS011;31254;51.680;5.394;2023-12-22T12:05:21;1.67;;;0.80;;
45522;SDS011;31254;51.680;5.394;2023-12-22T12:07:49;7.03;;;1.50;;
45522;SDS011;31254;51.680;5.394;2023-12-22T12:15:36;4.40;;;1.25;;
45522;SDS011;31254;51.680;5.394;2023-12-22T12:18:03;5.70;;;1.42;;
45522;SDS011;31254;51.680;5.394;2023-12-22T12:20:32;3.15;;;1.00;;
45522;SDS011;31254;51.680;5.394;2023-12-22T12:23:00;6.35;;;1.70;;
45522;SDS011;31254;51.680;5.394;2023-12-22T12:25:28;5.93;;;1.60;;
45522;SDS011;31254;51.680;5.394;2023-12-22T12:28:02;3.90;;;1.25;;
45522;SDS011;31254;51.680;5.394;2023-12-22T12:30:33;4.18;;;1.20;;
45522;SDS011;31254;51.680;5.394;2023-12-22T12:35:35;5.57;;;1.30;;
45522;SDS011;31254;51.680;5.394;2023-12-22T12:38:09;4.05;;;1.33;;
45522;SDS011;31254;51.680;5.394;2023-12-22T12:40:37;5.63;;;0.98;;
45522;SDS011;31254;51.680;5.394;2023-12-22T12:43:07;4.05;;;1.20;;
45522;SDS011;31254;51.680;5.394;2023-12-22T12:45:33;3.63;;;1.20;;
45522;SDS011;31254;51.680;5.394;2023-12-22T12:48:01;3.45;;;1.20;;
45522;SDS011;31254;51.680;5.394;2023-12-22T12:50:31;7.60;;;1.52;;
45522;SDS011;31254;51.680;5.394;2023-12-22T12:52:58;2.65;;;1.17;;
45522;SDS011;31254;51.680;5.394;2023-12-22T12:55:25;3.22;;;1.00;;
45522;SDS011;31254;51.680;5.394;2023-12-22T12:57:53;7.25;;;1.38;;
45522;SDS011;31254;51.680;5.394;2023-12-22T13:00:30;4.72;;;1.02;;
45522;SDS011;31254;51.680;5.394;2023-12-22T13:03:01;5.03;;;1.42;;
45522;SDS011;31254;51.680;5.394;2023-12-22T13:05:31;8.68;;;1.45;;
45522;SDS011;31254;51.680;5.394;2023-12-22T13:08:08;5.40;;;1.30;;
45522;SDS011;31254;51.680;5.394;2023-12-22T13:10:37;5.13;;;1.23;;
45522;SDS011;31254;51.680;5.394;2023-12-22T13:13:04;4.47;;;1.08;;
45522;SDS011;31254;51.680;5.394;2023-12-22T13:15:31;3.28;;;1.10;;
45522;SDS011;31254;51.680;5.394;2023-12-22T13:17:58;3.63;;;1.38;;
45522;SDS011;31254;51.680;5.394;2023-12-22T13:20:25;4.57;;;1.27;;
45522;SDS011;31254;51.680;5.394;2023-12-22T13:22:52;6.72;;;1.65;;
45522;SDS011;31254;51.680;5.394;2023-12-22T13:25:18;4.43;;;1.10;;
45522;SDS011;31254;51.680;5.394;2023-12-22T13:33:00;2.45;;;1.10;;
45522;SDS011;31254;51.680;5.394;2023-12-22T13:35:27;6.43;;;1.15;;
45522;SDS011;31254;51.680;5.394;2023-12-22T13:37:54;7.85;;;1.50;;
45522;SDS011;31254;51.680;5.394;2023-12-22T13:40:21;5.63;;;1.20;;
45522;SDS011;31254;51.680;5.394;2023-12-22T13:42:55;5.65;;;1.20;;
45522;SDS011;31254;51.680;5.394;2023-12-22T13:45:25;5.65;;;1.35;;
45522;SDS011;31254;51.680;5.394;2023-12-22T13:47:52;6.00;;;1.38;;
45522;SDS011;31254;51.680;5.394;2023-12-22T13:50:19;4.55;;;1.10;;
45522;SDS011;31254;51.680;5.394;2023-12-22T13:52:49;8.60;;;1.58;;
45522;SDS011;31254;51.680;5.394;2023-12-22T13:55:17;4.55;;;1.20;;
45522;SDS011;31254;51.680;5.394;2023-12-22T13:57:45;4.65;;;1.40;;
45522;SDS011;31254;51.680;5.394;2023-12-22T14:02:45;7.10;;;1.30;;
45522;SDS011;31254;51.680;5.394;2023-12-22T14:05:12;5.22;;;1.45;;
45522;SDS011;31254;51.680;5.394;2023-12-22T14:07:39;5.65;;;1.10;;
45522;SDS011;31254;51.680;5.394;2023-12-22T14:10:06;4.57;;;1.00;;
45522;SDS011;31254;51.680;5.394;2023-12-22T14:12:33;6.35;;;1.70;;
45522;SDS011;31254;51.680;5.394;2023-12-22T14:15:09;6.20;;;1.30;;
45522;SDS011;31254;51.680;5.394;2023-12-22T14:17:37;7.25;;;1.48;;
45522;SDS011;31254;51.680;5.394;2023-12-22T14:20:04;6.40;;;1.50;;
45522;SDS011;31254;51.680;5.394;2023-12-22T14:22:34;7.65;;;2.05;;
45522;SDS011;31254;51.680;5.394;2023-12-22T14:25:00;3.28;;;1.15;;
45522;SDS011;31254;51.680;5.394;2023-12-22T14:27:27;3.97;;;1.08;;
45522;SDS011;31254;51.680;5.394;2023-12-22T14:29:54;3.03;;;1.10;;
45522;SDS011;31254;51.680;5.394;2023-12-22T14:32:20;4.93;;;1.20;;
45522;SDS011;31254;51.680;5.394;2023-12-22T14:34:47;8.57;;;1.77;;
45522;SDS011;31254;51.680;5.394;2023-12-22T14:37:15;5.55;;;1.45;;
45522;SDS011;31254;51.680;5.394;2023-12-22T14:39:43;8.73;;;1.73;;
45522;SDS011;31254;51.680;5.394;2023-12-22T14:42:11;6.22;;;1.45;;
45522;SDS011;31254;51.680;5.394;2023-12-22T14:44:38;3.10;;;1.27;;
45522;SDS011;31254;51.680;5.394;2023-12-22T14:47:06;2.55;;;1.10;;
45522;SDS011;31254;51.680;5.394;2023-12-22T14:49:36;7.38;;;1.40;;
45522;SDS011;31254;51.680;5.394;2023-12-22T14:52:03;5.45;;;1.10;;
45522;SDS011;31254;51.680;5.394;2023-12-22T14:54:29;4.40;;;1.42;;
45522;SDS011;31254;51.680;5.394;2023-12-22T14:56:56;6.57;;;1.48;;
45522;SDS011;31254;51.680;5.394;2023-12-22T14:59:23;5.10;;;1.20;;
45522;SDS011;31254;51.680;5.394;2023-12-22T15:01:49;5.50;;;1.38;;
45522;SDS011;31254;51.680;5.394;2023-12-22T15:04:16;6.13;;;1.30;;
45522;SDS011;31254;51.680;5.394;2023-12-22T15:06:43;5.82;;;1.52;;
45522;SDS011;31254;51.680;5.394;2023-12-22T15:09:10;7.18;;;1.67;;